sensor_id;sensor_type;location;lat;lon;timestamp;P1;durP1;ratioP1;P2;durP2;ratioP2
52718;SDS011;38616;42.140;24.760;2023-04-08T14:46:33;12.20;;;4.70;;
52718;SDS011;38616;42.140;24.760;2023-04-08T14:48:59;7.95;;;4.28;;
52718;SDS011;38616;42.140;24.760;2023-04-08T14:51:25;6.80;;;4.10;;
52718;SDS011;38616;42.140;24.760;2023-04-08T14:53:50;6.18;;;4.03;;
52718;SDS011;38616;42.140;24.760;2023-04-08T14:56:15;7.88;;;4.75;;
52718;SDS011;38616;42.140;24.760;2023-04-08T14:58:41;7.50;;;4.57;;
52718;SDS011;38616;42.140;24.760;2023-04-08T15:01:06;12.43;;;6.68;;
52718;SDS011;38616;42.140;24.760;2023-04-08T15:03:35;11.90;;;5.50;;
52718;SDS011;38616;42.140;24.760;2023-04-08T15:06:00;8.93;;;5.07;;
52718;SDS011;38616;42.140;24.760;2023-04-08T15:08:29;16.67;;;7.25;;
52718;SDS011;38616;42.140;24.760;2023-04-08T15:13:21;8.00;;;4.63;;
52718;SDS011;38616;42.140;24.760;2023-04-08T15:15:47;7.95;;;4.28;;
52718;SDS011;38616;42.140;24.760;2023-04-08T15:18:14;8.93;;;3.80;;
52718;SDS011;38616;42.140;24.760;2023-04-08T15:20:40;7.13;;;4.43;;
52718;SDS011;38616;42.140;24.760;2023-04-08T15:23:05;7.82;;;4.00;;
52718;SDS011;38616;42.140;24.760;2023-04-08T15:25:31;7.43;;;4.05;;
52718;SDS011;38616;42.140;24.760;2023-04-08T15:27:57;12.68;;;6.20;;
52718;SDS011;38616;42.140;24.760;2023-04-08T15:30:22;9.27;;;4.30;;
52718;SDS011;38616;42.140;24.760;2023-04-08T15:32:50;9.32;;;4.50;;
52718;SDS011;38616;42.140;24.760;2023-04-08T15:35:16;10.85;;;4.88;;
52718;SDS011;38616;42.140;24.760;2023-04-08T15:37:41;8.77;;;5.10;;
52718;SDS011;38616;42.140;24.760;2023-04-08T15:40:07;15.10;;;8.93;;
52718;SDS011;38616;42.140;24.760;2023-04-08T15:42:33;14.25;;;7.03;;
52718;SDS011;38616;42.140;24.760;2023-04-08T15:44:59;7.78;;;4.32;;
52718;SDS011;38616;42.140;24.760;2023-04-08T15:47:24;8.07;;;4.07;;
52718;SDS011;38616;42.140;24.760;2023-04-08T15:49:53;7.18;;;3.75;;
52718;SDS011;38616;42.140;24.760;2023-04-08T15:52:19;6.88;;;4.05;;
52718;SDS011;38616;42.140;24.760;2023-04-08T15:54:45;9.55;;;4.07;;
52718;SDS011;38616;42.140;24.760;2023-04-08T15:57:11;6.72;;;3.75;;
52718;SDS011;38616;42.140;24.760;2023-04-08T15:59:36;8.38;;;4.03;;
52718;SDS011;38616;42.140;24.760;2023-04-08T16:02:02;8.18;;;4.38;;
52718;SDS011;38616;42.140;24.760;2023-04-08T16:04:27;6.70;;;4.03;;
52718;SDS011;38616;42.140;24.760;2023-04-08T16:06:53;7.22;;;4.53;;
52718;SDS011;38616;42.140;24.760;2023-04-08T16:09:18;8.57;;;5.07;;
52718;SDS011;38616;42.140;24.760;2023-04-08T16:11:49;7.78;;;4.70;;
52718;SDS011;38616;42.140;24.760;2023-04-08T16:14:14;8.25;;;4.63;;
52718;SDS011;38616;42.140;24.760;2023-04-08T16:16:40;12.40;;;5.30;;
52718;SDS011;38616;42.140;24.760;2023-04-08T16:19:05;28.92;;;12.93;;
52718;SDS011;38616;42.140;24.760;2023-04-08T16:21:32;13.15;;;7.55;;
52718;SDS011;38616;42.140;24.760;2023-04-08T16:23:59;17.10;;;9.52;;
52718;SDS011;38616;42.140;24.760;2023-04-08T16:26:25;13.18;;;7.40;;
52718;SDS011;38616;42.140;24.760;2023-04-08T16:28:51;20.00;;;9.73;;
52718;SDS011;38616;42.140;24.760;2023-04-08T16:31:17;16.10;;;8.98;;
52718;SDS011;38616;42.140;24.760;2023-04-08T16:33:42;14.52;;;7.43;;
52718;SDS011;38616;42.140;24.760;2023-04-08T16:36:08;23.05;;;12.18;;
52718;SDS011;38616;42.140;24.760;2023-04-08T16:38:33;17.13;;;8.75;;
52718;SDS011;38616;42.140;24.760;2023-04-08T16:40:59;15.88;;;7.68;;
52718;SDS011;38616;42.140;24.760;2023-04-08T16:43:25;21.58;;;10.85;;
52718;SDS011;38616;42.140;24.760;2023-04-08T16:45:51;24.42;;;13.18;;
52718;SDS011;38616;42.140;24.760;2023-04-08T16:48:17;24.92;;;12.57;;
52718;SDS011;38616;42.140;24.760;2023-04-08T16:50:43;23.80;;;11.13;;
52718;SDS011;38616;42.140;24.760;2023-04-08T16:53:08;47.65;;;21.88;;
52718;SDS011;38616;42.140;24.760;2023-04-08T16:55:34;25.85;;;13.02;;
52718;SDS011;38616;42.140;24.760;2023-04-08T16:58:02;18.25;;;8.95;;
52718;SDS011;38616;42.140;24.760;2023-04-08T17:00:29;12.07;;;6.30;;
52718;SDS011;38616;42.140;24.760;2023-04-08T17:02:55;18.85;;;7.78;;
52718;SDS011;38616;42.140;24.760;2023-04-08T17:05:22;12.80;;;6.55;;
52718;SDS011;38616;42.140;24.760;2023-04-08T17:07:48;10.70;;;5.78;;
52718;SDS011;38616;42.140;24.760;2023-04-08T17:10:13;12.60;;;5.90;;
52718;SDS011;38616;42.140;24.760;2023-04-08T17:12:39;12.25;;;5.63;;
52718;SDS011;38616;42.140;24.760;2023-04-08T17:15:05;12.02;;;5.95;;
52718;SDS011;38616;42.140;24.760;2023-04-08T17:17:31;14.05;;;6.82;;
52718;SDS011;38616;42.140;24.760;2023-04-08T17:19:57;13.07;;;6.75;;
52718;SDS011;38616;42.140;24.760;2023-04-08T17:22:23;16.27;;;7.50;;
52718;SDS011;38616;42.140;24.760;2023-04-08T17:24:49;20.13;;;8.48;;
52718;SDS011;38616;42.140;24.760;2023-04-08T17:27:14;24.70;;;12.98;;
52718;SDS011;38616;42.140;24.760;2023-04-08T17:29:40;20.02;;;8.55;;
52718;SDS011;38616;42.140;24.760;2023-04-08T17:32:05;17.80;;;9.00;;
52718;SDS011;38616;42.140;24.760;2023-04-08T17:34:31;20.52;;;11.20;;
52718;SDS011;38616;42.140;24.760;2023-04-08T17:36:59;19.40;;;9.07;;
52718;SDS011;38616;42.140;24.760;2023-04-08T17:39:24;17.23;;;7.82;;
52718;SDS011;38616;42.140;24.760;2023-04-08T17:41:50;14.63;;;7.95;;
52718;SDS011;38616;42.140;24.760;2023-04-08T17:44:15;22.25;;;9.90;;
52718;SDS011;38616;42.140;24.760;2023-04-08T17:46:41;16.65;;;9.38;;
52718;SDS011;38616;42.140;24.760;2023-04-08T17:49:06;19.52;;;9.80;;
52718;SDS011;38616;42.140;24.760;2023-04-08T17:51:35;13.35;;;7.78;;
52718;SDS011;38616;42.140;24.760;2023-04-08T17:54:00;16.95;;;8.50;;
52718;SDS011;38616;42.140;24.760;2023-04-08T17:56:26;15.82;;;7.47;;
52718;SDS011;38616;42.140;24.760;2023-04-08T17:58:52;16.00;;;8.00;;
52718;SDS011;38616;42.140;24.760;2023-04-08T18:01:17;17.25;;;8.77;;
52718;SDS011;38616;42.140;24.760;2023-04-08T18:03:43;16.73;;;8.38;;
52718;SDS011;38616;42.140;24.760;2023-04-08T18:06:08;19.48;;;8.75;;
52718;SDS011;38616;42.140;24.760;2023-04-08T18:08:34;15.00;;;8.80;;
52718;SDS011;38616;42.140;24.760;2023-04-08T18:13:37;21.42;;;12.88;;
52718;SDS011;38616;42.140;24.760;2023-04-08T18:16:03;19.13;;;9.80;;
52718;SDS011;38616;42.140;24.760;2023-04-08T18:18:31;18.98;;;9.63;;
52718;SDS011;38616;42.140;24.760;2023-04-08T18:20:57;17.27;;;9.93;;
52718;SDS011;38616;42.140;24.760;2023-04-08T18:23:26;21.55;;;9.40;;
52718;SDS011;38616;42.140;24.760;2023-04-08T18:25:52;18.10;;;9.13;;
52718;SDS011;38616;42.140;24.760;2023-04-08T18:28:17;17.05;;;8.38;;
52718;SDS011;38616;42.140;24.760;2023-04-08T18:30:43;14.82;;;8.43;;
52718;SDS011;38616;42.140;24.760;2023-04-08T18:33:08;17.75;;;8.73;;
52718;SDS011;38616;42.140;24.760;2023-04-08T18:35:33;15.10;;;8.63;;
52718;SDS011;38616;42.140;24.760;2023-04-08T18:37:59;19.42;;;9.23;;
52718;SDS011;38616;42.140;24.760;2023-04-08T18:40:24;17.52;;;8.13;;
52718;SDS011;38616;42.140;24.760;2023-04-08T18:42:50;17.13;;;8.63;;
52718;SDS011;38616;42.140;24.760;2023-04-08T18:45:15;15.70;;;8.00;;
52718;SDS011;38616;42.140;24.760;2023-04-08T18:47:40;16.02;;;7.47;;
52718;SDS011;38616;42.140;24.760;2023-04-08T18:50:06;17.02;;;8.13;;
52718;SDS011;38616;42.140;24.760;2023-04-08T18:52:32;12.13;;;7.30;;
52718;SDS011;38616;42.140;24.760;2023-04-08T18:54:57;14.40;;;6.82;;
52718;SDS011;38616;42.140;24.760;2023-04-08T18:57:26;13.35;;;7.28;;
52718;SDS011;38616;42.140;24.760;2023-04-08T18:59:52;16.52;;;7.90;;
52718;SDS011;38616;42.140;24.760;2023-04-08T19:02:17;16.85;;;8.32;;
52718;SDS011;38616;42.140;24.760;2023-04-08T19:04:42;15.25;;;8.32;;
52718;SDS011;38616;42.140;24.760;2023-04-08T19:07:08;17.00;;;8.80;;
52718;SDS011;38616;42.140;24.760;2023-04-08T19:09:33;15.25;;;8.30;;
52718;SDS011;38616;42.140;24.760;2023-04-08T19:11:59;15.07;;;7.78;;
52718;SDS011;38616;42.140;24.760;2023-04-08T19:14:25;14.32;;;7.55;;
52718;SDS011;38616;42.140;24.760;2023-04-08T19:16:51;14.05;;;7.75;;
52718;SDS011;38616;42.140;24.760;2023-04-08T19:19:17;13.27;;;7.22;;
52718;SDS011;38616;42.140;24.760;2023-04-08T19:21:42;15.60;;;8.27;;
52718;SDS011;38616;42.140;24.760;2023-04-08T19:24:07;14.65;;;7.90;;
52718;SDS011;38616;42.140;24.760;2023-04-08T19:26:33;13.75;;;7.85;;
52718;SDS011;38616;42.140;24.760;2023-04-08T19:29:00;12.18;;;7.43;;
52718;SDS011;38616;42.140;24.760;2023-04-08T19:31:25;15.00;;;7.47;;
52718;SDS011;38616;42.140;24.760;2023-04-08T19:33:51;11.38;;;6.40;;
52718;SDS011;38616;42.140;24.760;2023-04-08T19:36:16;14.52;;;6.55;;
52718;SDS011;38616;42.140;24.760;2023-04-08T19:38:42;11.10;;;6.65;;
52718;SDS011;38616;42.140;24.760;2023-04-08T19:41:07;11.38;;;6.60;;
52718;SDS011;38616;42.140;24.760;2023-04-08T19:43:32;9.43;;;5.57;;
52718;SDS011;38616;42.140;24.760;2023-04-08T19:45:58;13.10;;;5.88;;
52718;SDS011;38616;42.140;24.760;2023-04-08T19:48:23;11.13;;;5.85;;
52718;SDS011;38616;42.140;24.760;2023-04-08T19:50:50;14.27;;;5.63;;
52718;SDS011;38616;42.140;24.760;2023-04-08T19:53:15;10.65;;;5.85;;
52718;SDS011;38616;42.140;24.760;2023-04-08T19:55:41;13.63;;;5.78;;
52718;SDS011;38616;42.140;24.760;2023-04-08T19:58:06;10.65;;;5.28;;
52718;SDS011;38616;42.140;24.760;2023-04-08T20:00:32;8.55;;;4.78;;
52718;SDS011;38616;42.140;24.760;2023-04-08T20:02:57;9.93;;;5.18;;
52718;SDS011;38616;42.140;24.760;2023-04-08T20:05:23;8.93;;;4.75;;
52718;SDS011;38616;42.140;24.760;2023-04-08T20:07:48;9.23;;;4.70;;
52718;SDS011;38616;42.140;24.760;2023-04-08T20:10:14;7.63;;;4.70;;
52718;SDS011;38616;42.140;24.760;2023-04-08T20:12:40;9.20;;;5.13;;
52718;SDS011;38616;42.140;24.760;2023-04-08T20:15:06;9.38;;;5.40;;
52718;SDS011;38616;42.140;24.760;2023-04-08T20:17:33;8.93;;;4.55;;
52718;SDS011;38616;42.140;24.760;2023-04-08T20:19:58;9.70;;;5.03;;
52718;SDS011;38616;42.140;24.760;2023-04-08T20:22:24;11.07;;;5.28;;
52718;SDS011;38616;42.140;24.760;2023-04-08T20:24:49;10.15;;;5.13;;
52718;SDS011;38616;42.140;24.760;2023-04-08T20:27:15;8.15;;;4.63;;
52718;SDS011;38616;42.140;24.760;2023-04-08T20:29:42;9.67;;;5.03;;
52718;SDS011;38616;42.140;24.760;2023-04-08T20:32:08;9.13;;;5.07;;
52718;SDS011;38616;42.140;24.760;2023-04-08T20:34:34;10.43;;;4.38;;
52718;SDS011;38616;42.140;24.760;2023-04-08T20:37:00;11.18;;;5.35;;
52718;SDS011;38616;42.140;24.760;2023-04-08T20:39:26;9.00;;;4.90;;
52718;SDS011;38616;42.140;24.760;2023-04-08T20:41:56;12.25;;;5.55;;
52718;SDS011;38616;42.140;24.760;2023-04-08T20:46:58;8.75;;;5.07;;
52718;SDS011;38616;42.140;24.760;2023-04-08T20:49:24;8.38;;;4.22;;
52718;SDS011;38616;42.140;24.760;2023-04-08T20:51:49;9.82;;;4.45;;
52718;SDS011;38616;42.140;24.760;2023-04-08T20:54:15;8.32;;;4.72;;
52718;SDS011;38616;42.140;24.760;2023-04-08T20:56:40;15.80;;;4.93;;
52718;SDS011;38616;42.140;24.760;2023-04-08T20:59:06;7.75;;;4.18;;
52718;SDS011;38616;42.140;24.760;2023-04-08T21:01:32;12.40;;;5.03;;
52718;SDS011;38616;42.140;24.760;2023-04-08T21:03:57;9.50;;;5.15;;
52718;SDS011;38616;42.140;24.760;2023-04-08T21:06:23;8.55;;;4.45;;
52718;SDS011;38616;42.140;24.760;2023-04-08T21:08:48;10.05;;;4.93;;
52718;SDS011;38616;42.140;24.760;2023-04-08T21:11:14;10.98;;;4.82;;
52718;SDS011;38616;42.140;24.760;2023-04-08T21:13:40;11.52;;;5.45;;
52718;SDS011;38616;42.140;24.760;2023-04-08T21:16:06;9.55;;;5.80;;
52718;SDS011;38616;42.140;24.760;2023-04-08T21:18:31;9.65;;;5.03;;
52718;SDS011;38616;42.140;24.760;2023-04-08T21:20:57;9.75;;;4.63;;
52718;SDS011;38616;42.140;24.760;2023-04-08T21:23:23;9.18;;;5.38;;
52718;SDS011;38616;42.140;24.760;2023-04-08T21:25:48;9.13;;;4.80;;
52718;SDS011;38616;42.140;24.760;2023-04-08T21:28:16;9.27;;;4.78;;
52718;SDS011;38616;42.140;24.760;2023-04-08T21:30:41;6.70;;;4.32;;
52718;SDS011;38616;42.140;24.760;2023-04-08T21:33:07;10.73;;;5.00;;
52718;SDS011;38616;42.140;24.760;2023-04-08T21:35:32;7.95;;;4.45;;
52718;SDS011;38616;42.140;24.760;2023-04-08T21:37:58;11.05;;;5.43;;
52718;SDS011;38616;42.140;24.760;2023-04-08T21:40:24;9.70;;;5.10;;
52718;SDS011;38616;42.140;24.760;2023-04-08T21:42:50;8.23;;;4.53;;
52718;SDS011;38616;42.140;24.760;2023-04-08T21:45:15;8.35;;;4.80;;
52718;SDS011;38616;42.140;24.760;2023-04-08T21:47:41;14.30;;;5.10;;
52718;SDS011;38616;42.140;24.760;2023-04-08T21:50:07;9.25;;;4.72;;
52718;SDS011;38616;42.140;24.760;2023-04-08T21:52:32;9.95;;;5.30;;
52718;SDS011;38616;42.140;24.760;2023-04-08T21:54:58;10.73;;;5.80;;
52718;SDS011;38616;42.140;24.760;2023-04-08T21:57:23;12.35;;;5.68;;
52718;SDS011;38616;42.140;24.760;2023-04-08T21:59:49;10.68;;;5.07;;
52718;SDS011;38616;42.140;24.760;2023-04-08T22:02:15;10.75;;;4.90;;
52718;SDS011;38616;42.140;24.760;2023-04-08T22:04:41;9.35;;;5.38;;
52718;SDS011;38616;42.140;24.760;2023-04-08T22:07:06;12.43;;;5.43;;
52718;SDS011;38616;42.140;24.760;2023-04-08T22:09:32;8.48;;;4.93;;
52718;SDS011;38616;42.140;24.760;2023-04-08T22:11:57;12.25;;;5.72;;
52718;SDS011;38616;42.140;24.760;2023-04-08T22:14:23;10.20;;;4.78;;
52718;SDS011;38616;42.140;24.760;2023-04-08T22:16:48;13.00;;;5.95;;
52718;SDS011;38616;42.140;24.760;2023-04-08T22:19:14;11.07;;;5.45;;
52718;SDS011;38616;42.140;24.760;2023-04-08T22:21:39;17.70;;;5.90;;
52718;SDS011;38616;42.140;24.760;2023-04-08T22:24:05;12.35;;;6.38;;
52718;SDS011;38616;42.140;24.760;2023-04-08T22:26:30;13.52;;;6.57;;
52718;SDS011;38616;42.140;24.760;2023-04-08T22:28:56;10.98;;;5.13;;
52718;SDS011;38616;42.140;24.760;2023-04-08T22:31:21;10.48;;;5.53;;
52718;SDS011;38616;42.140;24.760;2023-04-08T22:33:46;11.73;;;6.05;;
52718;SDS011;38616;42.140;24.760;2023-04-08T22:36:12;11.82;;;5.45;;
52718;SDS011;38616;42.140;24.760;2023-04-08T22:38:37;12.93;;;5.80;;
52718;SDS011;38616;42.140;24.760;2023-04-08T22:41:03;13.25;;;6.35;;
52718;SDS011;38616;42.140;24.760;2023-04-08T22:43:28;16.60;;;6.18;;
52718;SDS011;38616;42.140;24.760;2023-04-08T22:45:54;13.50;;;6.32;;
52718;SDS011;38616;42.140;24.760;2023-04-08T22:48:19;10.30;;;5.72;;
52718;SDS011;38616;42.140;24.760;2023-04-08T22:50:45;13.23;;;6.28;;
52718;SDS011;38616;42.140;24.760;2023-04-08T22:53:10;9.15;;;5.85;;
52718;SDS011;38616;42.140;24.760;2023-04-08T22:55:36;9.70;;;5.80;;
52718;SDS011;38616;42.140;24.760;2023-04-08T22:58:02;11.55;;;5.50;;
52718;SDS011;38616;42.140;24.760;2023-04-08T23:00:27;16.55;;;6.97;;
52718;SDS011;38616;42.140;24.760;2023-04-08T23:02:53;13.43;;;5.57;;
52718;SDS011;38616;42.140;24.760;2023-04-08T23:05:18;10.55;;;5.93;;
52718;SDS011;38616;42.140;24.760;2023-04-08T23:07:44;11.45;;;6.22;;
52718;SDS011;38616;42.140;24.760;2023-04-08T23:10:09;11.77;;;5.80;;
52718;SDS011;38616;42.140;24.760;2023-04-08T23:12:35;12.75;;;6.25;;
52718;SDS011;38616;42.140;24.760;2023-04-08T23:15:00;12.32;;;5.53;;
52718;SDS011;38616;42.140;24.760;2023-04-08T23:17:26;10.93;;;5.70;;
52718;SDS011;38616;42.140;24.760;2023-04-08T23:19:51;11.82;;;5.80;;
52718;SDS011;38616;42.140;24.760;2023-04-08T23:22:16;14.25;;;6.82;;
52718;SDS011;38616;42.140;24.760;2023-04-08T23:24:44;12.18;;;6.10;;
52718;SDS011;38616;42.140;24.760;2023-04-08T23:27:10;11.48;;;5.75;;
52718;SDS011;38616;42.140;24.760;2023-04-08T23:29:35;10.40;;;5.32;;
52718;SDS011;38616;42.140;24.760;2023-04-08T23:32:00;13.93;;;6.25;;
52718;SDS011;38616;42.140;24.760;2023-04-08T23:34:26;12.30;;;5.63;;
52718;SDS011;38616;42.140;24.760;2023-04-08T23:36:51;11.85;;;5.97;;
52718;SDS011;38616;42.140;24.760;2023-04-08T23:39:17;10.27;;;5.63;;
52718;SDS011;38616;42.140;24.760;2023-04-08T23:41:42;12.23;;;5.78;;
52718;SDS011;38616;42.140;24.760;2023-04-08T23:44:08;10.05;;;5.78;;
52718;SDS011;38616;42.140;24.760;2023-04-08T23:46:33;12.00;;;5.82;;
52718;SDS011;38616;42.140;24.760;2023-04-08T23:48:59;11.73;;;5.57;;
52718;SDS011;38616;42.140;24.760;2023-04-08T23:51:24;10.77;;;5.88;;
52718;SDS011;38616;42.140;24.760;2023-04-08T23:53:51;11.90;;;6.27;;
52718;SDS011;38616;42.140;24.760;2023-04-08T23:56:17;10.45;;;5.85;;
52718;SDS011;38616;42.140;24.760;2023-04-08T23:58:42;10.18;;;5.78;;
